Flight Track Log - Related Links

Times and Time Zones

All times are in EST time to prevent confusion due to time zone crossing. See the SKW6492 flight status page for this flight to view local times or setup timezone preferences in your user account.

Time Position Orientation Groundspeed Altitude Reporting Facility
EST Latitude Longitude Course Direction KTS MPH feet Rate Location/Type
Fri 10:12:12 PM 39.9333 -104.7000 346° North 184 212 7,600  Level Denver TRACON
Fri 10:13:06 PM 39.9833 -104.6833 14° North 222 255 10,000 2,667 Climbing Denver TRACON
Fri 10:14:00 PM 40.1435 -104.7643 344° North  Level FlightAware Approximate
Fri 10:14:00 PM 40.0444 -104.6619 15° North 252 290 12,400  Level Denver Center
Fri 10:15:00 PM 40.2421 -104.7943 347° North  Level FlightAware Approximate
Fri 10:15:01 PM 40.1164 -104.6739 353° North 260 299 15,100  Level Denver Center
Fri 10:16:00 PM 40.3406 -104.8247 346° North  Level FlightAware Approximate
Fri 10:16:03 PM 40.1956 -104.6944 349° North 268 308 17,500  Level Denver Center
Fri 10:17:00 PM 40.4387 -104.8573 346° North  Level FlightAware Approximate
Fri 10:17:05 PM 40.2703 -104.7144 348° North 274 315 19,300  Level Denver Center
Fri 10:18:06 PM 40.3558 -104.7361 349° North 288 331 21,400 1,317 Climbing Denver Center
Fri 10:19:08 PM 40.4417 -104.7581 349° North 316 364 22,000 780 Climbing Denver Center
Fri 10:20:09 PM 40.5353 -104.7822 349° North 339 390 23,000 1,024 Climbing Denver Center
Fri 10:21:11 PM 40.6322 -104.8061 349° North 353 406 24,100 1,171 Climbing Denver Center
Fri 10:22:12 PM 40.7317 -104.8347 348° North 364 419 25,400 1,122 Climbing Denver Center
Fri 10:23:14 PM 40.8303 -104.8678 346° North 366 421 26,400 878 Climbing Denver Center
Fri 10:24:15 PM 40.9142 -104.9464 325° Northwest 373 429 27,200 780 Climbing Denver Center
Fri 10:25:17 PM 40.9953 -105.0336 321° Northwest 374 430 28,000 1,065 Climbing Denver Center
Fri 10:26:19 PM 41.0958 -105.1394 322° Northwest 384 442 29,400 1,220 Climbing Denver Center
Fri 10:27:20 PM 41.1733 -105.2222 321° Northwest 378 435 30,500 976 Climbing Denver Center
Fri 10:28:22 PM 41.2494 -105.3022 322° Northwest 369 425 31,400 732 Climbing Denver Center
Fri 10:29:23 PM 41.3383 -105.3967 321° Northwest 366 421 32,000 295 Climbing Denver Center
Fri 10:30:24 PM 41.4050 -105.4667 322° Northwest 375 432 32,000  Level Denver Center
Fri 10:31:38 PM 41.5167 -105.5861 321° Northwest 399 459 32,000  Level Denver Center
Fri 10:32:40 PM 41.6161 -105.6939 321° Northwest 409 471 32,000  Level Denver Center
Fri 10:33:42 PM 41.7172 -105.8025 321° Northwest 414 476 32,000  Level Denver Center
Fri 10:34:43 PM 41.8028 -105.8958 321° Northwest 415 478 32,000  Level Denver Center
Fri 10:35:44 PM 41.9044 -106.0056 321° Northwest 419 482 32,000  Level Denver Center
Fri 10:36:46 PM 41.9917 -106.1017 321° Northwest 421 484 32,000  Level Denver Center
Fri 10:37:47 PM 42.0789 -106.1969 321° Northwest 420 483 32,000  Level Denver Center
Fri 10:38:49 PM 42.1794 -106.3078 321° Northwest 419 482 32,000  Level Denver Center
Fri 10:39:50 PM 42.2661 -106.4042 321° Northwest 421 484 32,000  Level Denver Center
Fri 10:40:52 PM 42.3678 -106.5156 321° Northwest 421 484 32,000  Level Denver Center
Fri 10:41:53 PM 42.4533 -106.6128 320° Northwest 420 483 32,000  Level Denver Center
Fri 10:42:55 PM 42.5414 -106.7089 321° Northwest 423 487 32,000  Level Denver Center
Fri 10:43:56 PM 42.6417 -106.8211 321° Northwest 421 484 32,000  Level Denver Center
Fri 10:44:58 PM 42.7269 -106.9192 320° Northwest 420 483 32,000  Level Denver Center
Fri 10:45:59 PM 42.8269 -107.0314 321° Northwest 418 481 32,000  Level Denver Center
Fri 10:46:42 PM 42.8794 -107.0897 321° Northwest 422 486 32,000  Level Salt Lake Center
Fri 10:47:44 PM 42.9692 -107.1953 319° Northwest 417 480 32,000  Level Salt Lake Center
Fri 10:48:45 PM 43.0589 -107.2967 320° Northwest 419 482 32,000  Level Salt Lake Center
Fri 10:49:47 PM 43.1467 -107.3986 320° Northwest 415 478 32,000  Level Salt Lake Center
Fri 10:50:48 PM 43.2542 -107.5225 320° Northwest 420 483 32,000  Level Salt Lake Center
Fri 10:51:50 PM 43.3436 -107.6272 320° Northwest 423 487 32,000  Level Salt Lake Center
Fri 10:52:51 PM 43.4350 -107.7297 321° Northwest 425 489 32,000 -146 Level Salt Lake Center
Fri 10:53:53 PM 43.5253 -107.8361 320° Northwest 426 490 31,700 -1,415 Descending Salt Lake Center
Fri 10:54:54 PM 43.6122 -107.9386 320° Northwest 414 476 29,100 -2,488 Descending Salt Lake Center
Fri 10:55:56 PM 43.6950 -108.0353 320° Northwest 394 453 26,600 -2,439 Descending Salt Lake Center
Fri 10:56:57 PM 43.7803 -108.1353 320° Northwest 400 460 24,100 -2,459 Descending Salt Lake Center
Fri 10:57:58 PM 43.8658 -108.2367 320° Northwest 404 465 21,600 -2,439 Descending Salt Lake Center
Fri 10:59:00 PM 43.9478 -108.3369 319° Northwest 398 458 19,100 -2,585 Descending Salt Lake Center
Fri 11:00:01 PM 44.0422 -108.4486 320° Northwest 385 443 16,300 -2,098 Descending Salt Lake Center
Fri 11:01:03 PM 44.1156 -108.5372 319° Northwest 371 427 14,800 -1,463 Descending Salt Lake Center
Fri 11:02:04 PM 44.1842 -108.6189 320° Northwest 352 405 13,300 -1,366 Descending Salt Lake Center
Fri 11:03:06 PM 44.2519 -108.7014 319° Northwest 337 388 12,000 -878 Descending Salt Lake Center
Fri 11:04:07 PM 44.3194 -108.7825 319° Northwest 330 380 11,500 -1,024 Descending Salt Lake Center
Fri 11:05:09 PM 44.3753 -108.8358 326° Northwest 287 330 9,900 -1,317 Descending Salt Lake Center
Fri 11:06:10 PM 44.4356 -108.8789 333° Northwest 258 297 8,800 -1,033 Descending Salt Lake Center
Fri 11:07:11 PM 44.4917 -108.9206 332° Northwest 243 280 7,800 -1,024 Descending Salt Lake Center
Fri 11:08:13 PM 44.5364 -108.9461 338° Northwest 212 244 6,700 -829 Descending Salt Lake Center
Fri 11:09:14 PM 44.5750 -108.9892 322° Northwest 192 221 6,100 -590 Descending Salt Lake Center

Login

Don't have an account? Register now (free) for customized features, flight alerts, and more!